Impacts METAR Board
IDs:

KSEA - Seattle-Tacoma Intl, WA, US

Updated at: 1200 UTC 16 Sep 2019
Potential Impact None Slight Moderate High
Time 16/00Z 16/01Z 16/02Z 16/03Z 16/04Z 16/05Z 16/06Z 16/07Z 16/08Z 16/09Z 16/10Z 16/11Z 16/12Z
Temp61 61 60 59 58 57 58 58 57 55 55 54 55
Dewpt54 54 53 53 53 53 52 53 52 51 52 51 51
Altim29.75 29.75 29.76 29.77 29.77 29.77 29.78 29.78 29.78 29.79 29.79 29.79 29.79
VIS10 10 10 10 10 10 10 10 10 10 10 10 10
CIG200 200 70 110 120 220 65 70 250 -- 21 -- --
CoverOVCOVCBKNBKNBKNBKNOVCOVCBKNSCTBKNFEWFEW
FltCatVFRVFRVFRVFRVFRVFRVFRVFRVFRVFRMVFRVFRVFR
WX--------------------------
WDir200190200190170260210190140170160170140
WSpd8 6 6 7 6 3 4 6 4 5 3 4 3
WGst-- -- -- -- -- -- -- -- -- -- -- -- --
Raw hourly METARs
KSEA 152353Z 20008KT 10SM FEW012 FEW040 SCT075 OVC200 16/12 A2975 RMK AO2 SLP080 60005 T01610122 10161 20150 58001
KSEA 160053Z 19006KT 10SM FEW012 SCT075 OVC200 16/12 A2975 RMK AO2 SLP080 T01610122
KSEA 160153Z 20006KT 10SM SCT040 BKN070 BKN110 16/12 A2976 RMK AO2 SLP083 T01560117
KSEA 160253Z 19007KT 10SM FEW045 BKN110 BKN220 15/12 A2977 RMK AO2 SLP085 T01500117 53005
KSEA 160353Z 17006KT 10SM FEW045 BKN120 14/12 A2977 RMK AO2 SLP087 T01440117
KSEA 160453Z 26003KT 10SM FEW060 BKN220 14/12 A2977 RMK AO2 SLP086 T01390117
KSEA 160553Z 21004KT 10SM BKN065 OVC250 14/11 A2978 RMK AO2 SLP088 T01440111 10161 20139 53003
KSEA 160653Z 19006KT 10SM BKN070 OVC250 14/12 A2978 RMK AO2 SLP090 T01440117
KSEA 160753Z 14004KT 10SM FEW070 BKN250 14/11 A2978 RMK AO2 SLP090 T01390111 401610133
KSEA 160853Z 17005KT 10SM SCT070 SCT250 13/11 A2979 RMK AO2 SLP092 T01280106 51003
KSEA 160953Z 16003KT 10SM FEW015 BKN021 BKN027 13/11 A2979 RMK AO2 SLP091 T01280111
KSEA 161053Z 17004KT 10SM FEW025 FEW080 12/11 A2979 RMK AO2 SLP093 T01220106
KSEA 161153Z 14003KT 10SM FEW025 13/11 A2979 RMK AO2 SLP094 70022 T01280106 10144 20122 53003



Page loaded:  12:15 UTC  |   05:15 AM Pacific  |   06:15 AM Mountain  |   07:15 AM Central  |   08:15 AM Eastern

 

ADVISORIES

FORECASTS

FORECASTS

OBSERVATIONS

USER TOOLS

ABOUT US